sensor_id;sensor_type;location;lat;lon;timestamp;temperature;humidity
17170;DHT22;8700;48.222;16.342;2024-03-08T00:00:18;6.30;99.90
17170;DHT22;8700;48.222;16.342;2024-03-08T00:03:39;6.30;99.90
17170;DHT22;8700;48.222;16.342;2024-03-08T00:07:00;6.20;99.90
17170;DHT22;8700;48.222;16.342;2024-03-08T00:10:21;6.10;99.90
17170;DHT22;8700;48.222;16.342;2024-03-08T00:13:44;6.20;99.90
17170;DHT22;8700;48.222;16.342;2024-03-08T00:17:08;6.30;99.90
17170;DHT22;8700;48.222;16.342;2024-03-08T00:20:29;6.20;99.90
17170;DHT22;8700;48.222;16.342;2024-03-08T00:23:50;6.20;99.90
17170;DHT22;8700;48.222;16.342;2024-03-08T00:27:11;6.20;99.90
17170;DHT22;8700;48.222;16.342;2024-03-08T00:30:32;6.10;99.90
17170;DHT22;8700;48.222;16.342;2024-03-08T00:33:54;6.20;99.90
17170;DHT22;8700;48.222;16.342;2024-03-08T00:37:16;6.20;99.90
17170;DHT22;8700;48.222;16.342;2024-03-08T00:40:37;6.20;99.90
17170;DHT22;8700;48.222;16.342;2024-03-08T00:44:00;6.10;99.90
17170;DHT22;8700;48.222;16.342;2024-03-08T00:47:23;6.20;99.90
17170;DHT22;8700;48.222;16.342;2024-03-08T00:50:45;6.30;99.90
17170;DHT22;8700;48.222;16.342;2024-03-08T00:54:06;6.40;99.90
17170;DHT22;8700;48.222;16.342;2024-03-08T00:57:27;6.20;99.90
17170;DHT22;8700;48.222;16.342;2024-03-08T01:00:49;6.20;99.90
17170;DHT22;8700;48.222;16.342;2024-03-08T01:04:11;6.10;99.90
17170;DHT22;8700;48.222;16.342;2024-03-08T01:07:33;6.10;99.90
17170;DHT22;8700;48.222;16.342;2024-03-08T01:10:55;6.00;99.90
17170;DHT22;8700;48.222;16.342;2024-03-08T01:14:16;6.00;99.90
17170;DHT22;8700;48.222;16.342;2024-03-08T01:17:37;5.80;99.90
17170;DHT22;8700;48.222;16.342;2024-03-08T01:20:58;5.70;99.90
17170;DHT22;8700;48.222;16.342;2024-03-08T01:24:21;5.80;99.90
17170;DHT22;8700;48.222;16.342;2024-03-08T01:27:42;5.90;99.90
17170;DHT22;8700;48.222;16.342;2024-03-08T01:31:04;6.00;99.90
17170;DHT22;8700;48.222;16.342;2024-03-08T01:34:25;5.80;99.90
17170;DHT22;8700;48.222;16.342;2024-03-08T01:37:48;5.80;99.90
17170;DHT22;8700;48.222;16.342;2024-03-08T01:41:11;5.80;99.90
17170;DHT22;8700;48.222;16.342;2024-03-08T01:44:34;5.80;99.90
17170;DHT22;8700;48.222;16.342;2024-03-08T01:47:55;5.80;99.90
17170;DHT22;8700;48.222;16.342;2024-03-08T01:51:17;5.90;99.90
17170;DHT22;8700;48.222;16.342;2024-03-08T01:54:38;5.90;99.90
17170;DHT22;8700;48.222;16.342;2024-03-08T01:58:03;5.90;99.90
17170;DHT22;8700;48.222;16.342;2024-03-08T02:01:25;5.80;99.90
17170;DHT22;8700;48.222;16.342;2024-03-08T02:04:46;5.80;99.90
17170;DHT22;8700;48.222;16.342;2024-03-08T02:08:08;5.90;99.90
17170;DHT22;8700;48.222;16.342;2024-03-08T02:11:33;5.70;99.90
17170;DHT22;8700;48.222;16.342;2024-03-08T02:14:55;5.60;99.90
17170;DHT22;8700;48.222;16.342;2024-03-08T02:18:17;5.50;99.90
17170;DHT22;8700;48.222;16.342;2024-03-08T02:21:39;5.30;99.90
17170;DHT22;8700;48.222;16.342;2024-03-08T02:25:00;5.50;99.90
17170;DHT22;8700;48.222;16.342;2024-03-08T02:28:24;5.40;99.90
17170;DHT22;8700;48.222;16.342;2024-03-08T02:31:46;5.30;99.90
17170;DHT22;8700;48.222;16.342;2024-03-08T02:35:07;5.30;99.90
17170;DHT22;8700;48.222;16.342;2024-03-08T02:38:29;5.20;99.90
17170;DHT22;8700;48.222;16.342;2024-03-08T02:41:50;5.20;99.90
17170;DHT22;8700;48.222;16.342;2024-03-08T02:45:12;5.30;99.90
17170;DHT22;8700;48.222;16.342;2024-03-08T02:48:33;5.40;99.90
17170;DHT22;8700;48.222;16.342;2024-03-08T02:51:55;5.30;99.90
17170;DHT22;8700;48.222;16.342;2024-03-08T02:55:18;5.40;99.90
17170;DHT22;8700;48.222;16.342;2024-03-08T02:58:39;5.30;99.90
17170;DHT22;8700;48.222;16.342;2024-03-08T03:02:00;5.40;99.90
17170;DHT22;8700;48.222;16.342;2024-03-08T03:05:22;5.40;99.90
17170;DHT22;8700;48.222;16.342;2024-03-08T03:08:43;5.50;99.90
17170;DHT22;8700;48.222;16.342;2024-03-08T03:12:08;5.60;99.90
17170;DHT22;8700;48.222;16.342;2024-03-08T03:15:29;5.50;99.90
17170;DHT22;8700;48.222;16.342;2024-03-08T03:18:50;5.60;99.90
17170;DHT22;8700;48.222;16.342;2024-03-08T03:22:11;5.60;99.90
17170;DHT22;8700;48.222;16.342;2024-03-08T03:25:32;5.60;99.90
17170;DHT22;8700;48.222;16.342;2024-03-08T03:28:56;5.60;99.90
17170;DHT22;8700;48.222;16.342;2024-03-08T03:32:18;5.70;99.90
17170;DHT22;8700;48.222;16.342;2024-03-08T03:35:39;5.50;99.90
17170;DHT22;8700;48.222;16.342;2024-03-08T03:39:01;5.30;99.90
17170;DHT22;8700;48.222;16.342;2024-03-08T03:42:30;5.40;99.90
17170;DHT22;8700;48.222;16.342;2024-03-08T03:45:52;5.50;99.90
17170;DHT22;8700;48.222;16.342;2024-03-08T03:49:13;5.50;99.90
17170;DHT22;8700;48.222;16.342;2024-03-08T03:52:35;5.50;99.90
17170;DHT22;8700;48.222;16.342;2024-03-08T03:55:56;5.60;99.90
17170;DHT22;8700;48.222;16.342;2024-03-08T03:59:17;5.60;99.90
17170;DHT22;8700;48.222;16.342;2024-03-08T04:02:40;5.60;99.90
17170;DHT22;8700;48.222;16.342;2024-03-08T04:06:02;5.50;99.90
17170;DHT22;8700;48.222;16.342;2024-03-08T04:09:24;5.50;99.90
17170;DHT22;8700;48.222;16.342;2024-03-08T04:12:45;5.60;99.90
17170;DHT22;8700;48.222;16.342;2024-03-08T04:16:07;5.60;99.90
17170;DHT22;8700;48.222;16.342;2024-03-08T04:19:29;5.60;99.90
17170;DHT22;8700;48.222;16.342;2024-03-08T04:22:51;5.50;99.90
17170;DHT22;8700;48.222;16.342;2024-03-08T04:26:12;5.40;99.90
17170;DHT22;8700;48.222;16.342;2024-03-08T04:29:33;5.40;99.90
17170;DHT22;8700;48.222;16.342;2024-03-08T04:32:55;5.50;99.90
17170;DHT22;8700;48.222;16.342;2024-03-08T04:36:17;5.50;99.90
17170;DHT22;8700;48.222;16.342;2024-03-08T04:39:39;5.40;99.90
17170;DHT22;8700;48.222;16.342;2024-03-08T04:43:00;5.40;99.90
17170;DHT22;8700;48.222;16.342;2024-03-08T04:46:22;5.30;99.90
17170;DHT22;8700;48.222;16.342;2024-03-08T04:49:43;5.40;99.90
17170;DHT22;8700;48.222;16.342;2024-03-08T04:53:05;5.30;99.90
17170;DHT22;8700;48.222;16.342;2024-03-08T04:56:27;5.40;99.90
17170;DHT22;8700;48.222;16.342;2024-03-08T04:59:48;5.40;99.90
17170;DHT22;8700;48.222;16.342;2024-03-08T05:03:09;5.40;99.90
17170;DHT22;8700;48.222;16.342;2024-03-08T05:06:31;5.30;99.90
17170;DHT22;8700;48.222;16.342;2024-03-08T05:09:54;5.30;99.90
17170;DHT22;8700;48.222;16.342;2024-03-08T05:13:16;5.30;99.90
17170;DHT22;8700;48.222;16.342;2024-03-08T05:16:38;5.30;99.90
17170;DHT22;8700;48.222;16.342;2024-03-08T05:20:00;5.20;99.90
17170;DHT22;8700;48.222;16.342;2024-03-08T05:23:21;5.30;99.90
17170;DHT22;8700;48.222;16.342;2024-03-08T05:26:44;5.30;99.90
17170;DHT22;8700;48.222;16.342;2024-03-08T05:30:06;5.40;99.90
17170;DHT22;8700;48.222;16.342;2024-03-08T05:33:27;5.40;99.90
17170;DHT22;8700;48.222;16.342;2024-03-08T05:36:48;5.40;99.90
17170;DHT22;8700;48.222;16.342;2024-03-08T05:40:10;5.40;99.90
17170;DHT22;8700;48.222;16.342;2024-03-08T05:43:33;5.50;99.90
17170;DHT22;8700;48.222;16.342;2024-03-08T05:46:54;5.50;99.90
17170;DHT22;8700;48.222;16.342;2024-03-08T05:50:16;5.60;99.90
17170;DHT22;8700;48.222;16.342;2024-03-08T05:53:37;5.60;99.90
17170;DHT22;8700;48.222;16.342;2024-03-08T05:56:58;5.60;99.90
17170;DHT22;8700;48.222;16.342;2024-03-08T06:00:20;5.60;99.90
17170;DHT22;8700;48.222;16.342;2024-03-08T06:03:42;5.60;99.90
17170;DHT22;8700;48.222;16.342;2024-03-08T06:07:04;5.60;99.90
17170;DHT22;8700;48.222;16.342;2024-03-08T06:10:26;5.60;99.90
17170;DHT22;8700;48.222;16.342;2024-03-08T06:13:47;5.60;99.90
17170;DHT22;8700;48.222;16.342;2024-03-08T06:17:11;5.60;99.90
17170;DHT22;8700;48.222;16.342;2024-03-08T06:20:32;5.60;99.90
17170;DHT22;8700;48.222;16.342;2024-03-08T06:23:53;5.60;99.90
17170;DHT22;8700;48.222;16.342;2024-03-08T06:27:17;5.60;99.90
17170;DHT22;8700;48.222;16.342;2024-03-08T06:30:38;5.70;99.90
17170;DHT22;8700;48.222;16.342;2024-03-08T06:34:01;5.80;99.90
17170;DHT22;8700;48.222;16.342;2024-03-08T06:37:22;5.80;99.90
17170;DHT22;8700;48.222;16.342;2024-03-08T06:40:43;5.80;99.90
17170;DHT22;8700;48.222;16.342;2024-03-08T06:44:07;5.90;99.90
17170;DHT22;8700;48.222;16.342;2024-03-08T06:47:28;5.80;99.90
17170;DHT22;8700;48.222;16.342;2024-03-08T06:50:51;5.80;99.90
17170;DHT22;8700;48.222;16.342;2024-03-08T06:54:12;5.90;99.90
17170;DHT22;8700;48.222;16.342;2024-03-08T06:57:33;5.90;99.90
17170;DHT22;8700;48.222;16.342;2024-03-08T07:00:54;5.90;99.90
17170;DHT22;8700;48.222;16.342;2024-03-08T07:04:18;6.00;99.90
17170;DHT22;8700;48.222;16.342;2024-03-08T07:07:41;6.00;99.90
17170;DHT22;8700;48.222;16.342;2024-03-08T07:11:02;6.00;99.90
17170;DHT22;8700;48.222;16.342;2024-03-08T07:14:24;6.00;99.90
17170;DHT22;8700;48.222;16.342;2024-03-08T07:17:45;6.10;99.90
17170;DHT22;8700;48.222;16.342;2024-03-08T07:21:06;6.10;99.90
17170;DHT22;8700;48.222;16.342;2024-03-08T07:24:29;6.20;99.90
17170;DHT22;8700;48.222;16.342;2024-03-08T07:27:59;6.30;99.90
17170;DHT22;8700;48.222;16.342;2024-03-08T07:31:20;6.30;99.90
17170;DHT22;8700;48.222;16.342;2024-03-08T07:34:51;6.40;99.90
17170;DHT22;8700;48.222;16.342;2024-03-08T07:38:12;6.40;99.90
17170;DHT22;8700;48.222;16.342;2024-03-08T07:41:36;6.40;99.90
17170;DHT22;8700;48.222;16.342;2024-03-08T07:44:57;6.30;99.90
17170;DHT22;8700;48.222;16.342;2024-03-08T07:48:19;6.50;99.90
17170;DHT22;8700;48.222;16.342;2024-03-08T07:51:40;6.50;99.90
17170;DHT22;8700;48.222;16.342;2024-03-08T07:55:02;6.50;99.90
17170;DHT22;8700;48.222;16.342;2024-03-08T07:58:24;6.50;99.90
17170;DHT22;8700;48.222;16.342;2024-03-08T08:01:46;6.60;99.90
17170;DHT22;8700;48.222;16.342;2024-03-08T08:05:08;6.60;99.90
17170;DHT22;8700;48.222;16.342;2024-03-08T08:08:30;6.60;99.90
17170;DHT22;8700;48.222;16.342;2024-03-08T08:11:52;6.60;99.90
17170;DHT22;8700;48.222;16.342;2024-03-08T08:15:14;6.60;99.90
17170;DHT22;8700;48.222;16.342;2024-03-08T08:18:36;6.60;99.90
17170;DHT22;8700;48.222;16.342;2024-03-08T08:21:58;6.60;99.90
17170;DHT22;8700;48.222;16.342;2024-03-08T08:25:20;6.70;99.90
17170;DHT22;8700;48.222;16.342;2024-03-08T08:28:44;6.40;99.90
17170;DHT22;8700;48.222;16.342;2024-03-08T08:32:07;6.10;99.90
17170;DHT22;8700;48.222;16.342;2024-03-08T08:35:29;6.20;99.90
17170;DHT22;8700;48.222;16.342;2024-03-08T08:38:50;6.50;99.90
17170;DHT22;8700;48.222;16.342;2024-03-08T08:42:13;6.80;99.90
17170;DHT22;8700;48.222;16.342;2024-03-08T08:45:34;6.80;99.90
17170;DHT22;8700;48.222;16.342;2024-03-08T08:48:57;6.50;99.90
17170;DHT22;8700;48.222;16.342;2024-03-08T08:52:18;6.40;99.90
17170;DHT22;8700;48.222;16.342;2024-03-08T08:55:40;6.30;99.90
17170;DHT22;8700;48.222;16.342;2024-03-08T08:59:01;6.30;99.90
17170;DHT22;8700;48.222;16.342;2024-03-08T09:02:23;6.20;99.90
17170;DHT22;8700;48.222;16.342;2024-03-08T09:05:47;6.20;99.90
17170;DHT22;8700;48.222;16.342;2024-03-08T09:09:08;6.20;99.90
17170;DHT22;8700;48.222;16.342;2024-03-08T09:12:30;6.30;99.90
17170;DHT22;8700;48.222;16.342;2024-03-08T09:15:52;6.20;99.90
17170;DHT22;8700;48.222;16.342;2024-03-08T09:19:13;6.00;99.90
17170;DHT22;8700;48.222;16.342;2024-03-08T09:22:36;5.90;99.90
17170;DHT22;8700;48.222;16.342;2024-03-08T09:25:57;5.90;99.90
17170;DHT22;8700;48.222;16.342;2024-03-08T09:29:18;5.70;99.90
17170;DHT22;8700;48.222;16.342;2024-03-08T09:32:40;6.10;99.90
17170;DHT22;8700;48.222;16.342;2024-03-08T09:36:04;6.50;99.90
17170;DHT22;8700;48.222;16.342;2024-03-08T09:39:27;6.60;99.90
17170;DHT22;8700;48.222;16.342;2024-03-08T09:42:48;6.30;99.90
17170;DHT22;8700;48.222;16.342;2024-03-08T09:46:10;6.10;99.90
17170;DHT22;8700;48.222;16.342;2024-03-08T09:49:34;6.00;99.90
17170;DHT22;8700;48.222;16.342;2024-03-08T09:52:55;6.10;99.90
17170;DHT22;8700;48.222;16.342;2024-03-08T09:56:19;6.10;99.90
17170;DHT22;8700;48.222;16.342;2024-03-08T09:59:41;6.40;99.90
17170;DHT22;8700;48.222;16.342;2024-03-08T10:03:06;6.60;99.90
17170;DHT22;8700;48.222;16.342;2024-03-08T10:06:28;6.70;99.90
17170;DHT22;8700;48.222;16.342;2024-03-08T10:09:52;7.00;99.90
17170;DHT22;8700;48.222;16.342;2024-03-08T10:13:15;7.30;99.90
17170;DHT22;8700;48.222;16.342;2024-03-08T10:16:38;7.20;99.90
17170;DHT22;8700;48.222;16.342;2024-03-08T10:19:59;7.30;99.90
17170;DHT22;8700;48.222;16.342;2024-03-08T10:23:21;7.60;99.90
17170;DHT22;8700;48.222;16.342;2024-03-08T10:26:43;7.90;99.90
17170;DHT22;8700;48.222;16.342;2024-03-08T10:30:06;8.40;99.90
17170;DHT22;8700;48.222;16.342;2024-03-08T10:33:32;8.60;99.90
17170;DHT22;8700;48.222;16.342;2024-03-08T10:36:59;8.80;99.90
17170;DHT22;8700;48.222;16.342;2024-03-08T10:40:25;8.20;99.90
17170;DHT22;8700;48.222;16.342;2024-03-08T10:44:02;8.20;99.90
17170;DHT22;8700;48.222;16.342;2024-03-08T10:47:31;7.80;99.90
17170;DHT22;8700;48.222;16.342;2024-03-08T10:50:57;8.00;99.90
17170;DHT22;8700;48.222;16.342;2024-03-08T10:54:19;8.10;99.90
17170;DHT22;8700;48.222;16.342;2024-03-08T10:57:52;8.80;99.90
17170;DHT22;8700;48.222;16.342;2024-03-08T11:01:13;8.80;99.90
17170;DHT22;8700;48.222;16.342;2024-03-08T11:04:38;9.40;99.90
17170;DHT22;8700;48.222;16.342;2024-03-08T11:08:00;9.50;99.90
17170;DHT22;8700;48.222;16.342;2024-03-08T11:11:28;9.50;99.90
17170;DHT22;8700;48.222;16.342;2024-03-08T11:14:52;9.50;99.90
17170;DHT22;8700;48.222;16.342;2024-03-08T11:18:13;9.50;99.90
17170;DHT22;8700;48.222;16.342;2024-03-08T11:21:36;9.10;99.90
17170;DHT22;8700;48.222;16.342;2024-03-08T11:24:59;8.80;99.90
17170;DHT22;8700;48.222;16.342;2024-03-08T11:28:23;8.80;99.90
17170;DHT22;8700;48.222;16.342;2024-03-08T11:31:46;9.30;99.90
17170;DHT22;8700;48.222;16.342;2024-03-08T11:35:08;10.30;99.90
17170;DHT22;8700;48.222;16.342;2024-03-08T11:38:41;10.50;99.90
17170;DHT22;8700;48.222;16.342;2024-03-08T11:42:04;10.40;99.90
17170;DHT22;8700;48.222;16.342;2024-03-08T11:45:26;11.70;99.90
17170;DHT22;8700;48.222;16.342;2024-03-08T11:48:47;11.80;99.90
17170;DHT22;8700;48.222;16.342;2024-03-08T11:52:11;11.20;99.90
17170;DHT22;8700;48.222;16.342;2024-03-08T11:55:34;10.60;99.90
17170;DHT22;8700;48.222;16.342;2024-03-08T11:58:56;10.00;99.90
17170;DHT22;8700;48.222;16.342;2024-03-08T12:02:18;9.70;99.90
17170;DHT22;8700;48.222;16.342;2024-03-08T12:05:39;10.20;99.90
17170;DHT22;8700;48.222;16.342;2024-03-08T12:09:02;10.10;99.90
17170;DHT22;8700;48.222;16.342;2024-03-08T12:12:25;10.00;99.90
17170;DHT22;8700;48.222;16.342;2024-03-08T12:15:47;9.90;99.90
17170;DHT22;8700;48.222;16.342;2024-03-08T12:19:09;9.40;99.90
17170;DHT22;8700;48.222;16.342;2024-03-08T12:22:30;8.80;99.90
17170;DHT22;8700;48.222;16.342;2024-03-08T12:25:52;9.10;99.90
17170;DHT22;8700;48.222;16.342;2024-03-08T12:29:18;9.10;99.90
17170;DHT22;8700;48.222;16.342;2024-03-08T12:32:56;8.70;99.90
17170;DHT22;8700;48.222;16.342;2024-03-08T12:36:21;8.60;99.90
17170;DHT22;8700;48.222;16.342;2024-03-08T12:39:42;9.10;99.90
17170;DHT22;8700;48.222;16.342;2024-03-08T12:43:04;8.90;99.90
17170;DHT22;8700;48.222;16.342;2024-03-08T12:46:27;8.90;99.90
17170;DHT22;8700;48.222;16.342;2024-03-08T12:49:49;8.70;99.90
17170;DHT22;8700;48.222;16.342;2024-03-08T12:53:11;9.30;99.90
17170;DHT22;8700;48.222;16.342;2024-03-08T12:56:34;9.60;99.90
17170;DHT22;8700;48.222;16.342;2024-03-08T12:59:57;9.70;99.90
17170;DHT22;8700;48.222;16.342;2024-03-08T13:03:19;9.60;99.90
17170;DHT22;8700;48.222;16.342;2024-03-08T13:06:40;9.70;99.90
17170;DHT22;8700;48.222;16.342;2024-03-08T13:10:02;10.10;99.90
17170;DHT22;8700;48.222;16.342;2024-03-08T13:13:24;10.10;99.90
17170;DHT22;8700;48.222;16.342;2024-03-08T13:16:45;9.80;99.90
17170;DHT22;8700;48.222;16.342;2024-03-08T13:20:10;10.10;99.90
17170;DHT22;8700;48.222;16.342;2024-03-08T13:23:36;9.80;99.90
17170;DHT22;8700;48.222;16.342;2024-03-08T13:27:00;9.50;99.90
17170;DHT22;8700;48.222;16.342;2024-03-08T13:30:21;9.50;99.90
17170;DHT22;8700;48.222;16.342;2024-03-08T13:33:45;10.30;99.90
17170;DHT22;8700;48.222;16.342;2024-03-08T13:37:08;10.70;99.90
17170;DHT22;8700;48.222;16.342;2024-03-08T13:40:29;10.90;99.90
17170;DHT22;8700;48.222;16.342;2024-03-08T13:43:50;10.20;99.90
17170;DHT22;8700;48.222;16.342;2024-03-08T13:47:13;9.80;99.90
17170;DHT22;8700;48.222;16.342;2024-03-08T13:50:34;9.80;99.90
17170;DHT22;8700;48.222;16.342;2024-03-08T13:53:57;9.60;99.90
17170;DHT22;8700;48.222;16.342;2024-03-08T13:57:18;9.70;99.90
17170;DHT22;8700;48.222;16.342;2024-03-08T14:00:40;10.20;99.90
17170;DHT22;8700;48.222;16.342;2024-03-08T14:04:03;11.20;99.90
17170;DHT22;8700;48.222;16.342;2024-03-08T14:07:24;11.30;99.90
17170;DHT22;8700;48.222;16.342;2024-03-08T14:10:47;10.70;99.90
17170;DHT22;8700;48.222;16.342;2024-03-08T14:14:10;10.70;99.90
17170;DHT22;8700;48.222;16.342;2024-03-08T14:17:32;10.80;99.90
17170;DHT22;8700;48.222;16.342;2024-03-08T14:20:53;10.60;99.90
17170;DHT22;8700;48.222;16.342;2024-03-08T14:24:15;10.60;99.90
17170;DHT22;8700;48.222;16.342;2024-03-08T14:27:37;10.70;99.90
17170;DHT22;8700;48.222;16.342;2024-03-08T14:30:58;10.70;99.90
17170;DHT22;8700;48.222;16.342;2024-03-08T14:34:22;10.60;99.90
17170;DHT22;8700;48.222;16.342;2024-03-08T14:37:46;10.60;99.90
17170;DHT22;8700;48.222;16.342;2024-03-08T14:41:07;10.30;99.90
17170;DHT22;8700;48.222;16.342;2024-03-08T14:44:30;10.20;99.90
17170;DHT22;8700;48.222;16.342;2024-03-08T14:47:51;9.50;99.90
17170;DHT22;8700;48.222;16.342;2024-03-08T14:51:13;9.30;99.90
17170;DHT22;8700;48.222;16.342;2024-03-08T14:54:34;8.90;99.90
17170;DHT22;8700;48.222;16.342;2024-03-08T14:57:56;8.80;99.90
17170;DHT22;8700;48.222;16.342;2024-03-08T15:01:18;8.90;99.90
17170;DHT22;8700;48.222;16.342;2024-03-08T15:04:42;9.10;99.90
17170;DHT22;8700;48.222;16.342;2024-03-08T15:08:03;9.10;99.90
17170;DHT22;8700;48.222;16.342;2024-03-08T15:11:29;9.10;99.90
17170;DHT22;8700;48.222;16.342;2024-03-08T15:14:50;9.30;99.90
17170;DHT22;8700;48.222;16.342;2024-03-08T15:18:14;9.60;99.90
17170;DHT22;8700;48.222;16.342;2024-03-08T15:21:35;8.90;99.90
17170;DHT22;8700;48.222;16.342;2024-03-08T15:24:56;9.30;99.90
17170;DHT22;8700;48.222;16.342;2024-03-08T15:28:18;9.10;99.90
17170;DHT22;8700;48.222;16.342;2024-03-08T15:31:40;8.70;99.90
17170;DHT22;8700;48.222;16.342;2024-03-08T15:35:04;9.20;99.90
17170;DHT22;8700;48.222;16.342;2024-03-08T15:38:25;9.40;99.90
17170;DHT22;8700;48.222;16.342;2024-03-08T15:41:48;9.20;99.90
17170;DHT22;8700;48.222;16.342;2024-03-08T15:45:09;9.00;99.90
17170;DHT22;8700;48.222;16.342;2024-03-08T15:48:31;8.70;99.90
17170;DHT22;8700;48.222;16.342;2024-03-08T15:51:54;9.10;99.90
17170;DHT22;8700;48.222;16.342;2024-03-08T15:55:15;9.30;99.90
17170;DHT22;8700;48.222;16.342;2024-03-08T15:58:39;9.20;99.90
17170;DHT22;8700;48.222;16.342;2024-03-08T16:02:00;9.10;99.90
17170;DHT22;8700;48.222;16.342;2024-03-08T16:05:21;9.00;99.90
17170;DHT22;8700;48.222;16.342;2024-03-08T16:08:44;9.00;99.90
17170;DHT22;8700;48.222;16.342;2024-03-08T16:12:05;9.10;99.90
17170;DHT22;8700;48.222;16.342;2024-03-08T16:15:27;9.40;99.90
17170;DHT22;8700;48.222;16.342;2024-03-08T16:18:48;9.10;99.90
17170;DHT22;8700;48.222;16.342;2024-03-08T16:22:09;9.00;99.90
17170;DHT22;8700;48.222;16.342;2024-03-08T16:25:31;9.10;99.90
17170;DHT22;8700;48.222;16.342;2024-03-08T16:28:53;9.30;99.90
17170;DHT22;8700;48.222;16.342;2024-03-08T16:32:16;9.00;99.90
17170;DHT22;8700;48.222;16.342;2024-03-08T16:35:39;9.00;99.90
17170;DHT22;8700;48.222;16.342;2024-03-08T16:39:03;8.70;99.90
17170;DHT22;8700;48.222;16.342;2024-03-08T16:42:26;8.50;99.90
17170;DHT22;8700;48.222;16.342;2024-03-08T16:45:47;8.70;99.90
17170;DHT22;8700;48.222;16.342;2024-03-08T16:49:10;8.40;99.90
17170;DHT22;8700;48.222;16.342;2024-03-08T16:52:32;8.40;99.90
17170;DHT22;8700;48.222;16.342;2024-03-08T16:55:54;8.50;99.90
17170;DHT22;8700;48.222;16.342;2024-03-08T16:59:18;8.60;99.90
17170;DHT22;8700;48.222;16.342;2024-03-08T17:02:39;8.90;99.90
17170;DHT22;8700;48.222;16.342;2024-03-08T17:06:00;8.80;99.90
17170;DHT22;8700;48.222;16.342;2024-03-08T17:09:22;9.00;99.90
17170;DHT22;8700;48.222;16.342;2024-03-08T17:12:45;8.60;99.90
17170;DHT22;8700;48.222;16.342;2024-03-08T17:16:09;8.80;99.90
17170;DHT22;8700;48.222;16.342;2024-03-08T17:19:32;8.70;99.90
17170;DHT22;8700;48.222;16.342;2024-03-08T17:22:55;8.50;99.90
17170;DHT22;8700;48.222;16.342;2024-03-08T17:26:16;8.60;99.90
17170;DHT22;8700;48.222;16.342;2024-03-08T17:29:38;8.50;99.90
17170;DHT22;8700;48.222;16.342;2024-03-08T17:33:02;8.20;99.90
17170;DHT22;8700;48.222;16.342;2024-03-08T17:36:26;8.20;99.90
17170;DHT22;8700;48.222;16.342;2024-03-08T17:39:47;7.90;99.90
17170;DHT22;8700;48.222;16.342;2024-03-08T17:43:09;8.10;99.90
17170;DHT22;8700;48.222;16.342;2024-03-08T17:46:31;8.20;99.90
17170;DHT22;8700;48.222;16.342;2024-03-08T17:49:54;8.30;99.90
17170;DHT22;8700;48.222;16.342;2024-03-08T17:53:15;8.10;99.90
17170;DHT22;8700;48.222;16.342;2024-03-08T17:56:38;8.20;99.90
17170;DHT22;8700;48.222;16.342;2024-03-08T17:59:59;8.20;99.90
17170;DHT22;8700;48.222;16.342;2024-03-08T18:03:21;7.80;99.90
17170;DHT22;8700;48.222;16.342;2024-03-08T18:06:48;7.70;99.90
17170;DHT22;8700;48.222;16.342;2024-03-08T18:10:10;7.70;99.90
17170;DHT22;8700;48.222;16.342;2024-03-08T18:13:38;7.70;99.90
17170;DHT22;8700;48.222;16.342;2024-03-08T18:16:59;7.90;99.90
17170;DHT22;8700;48.222;16.342;2024-03-08T18:20:21;8.10;99.90
17170;DHT22;8700;48.222;16.342;2024-03-08T18:23:50;8.00;99.90
17170;DHT22;8700;48.222;16.342;2024-03-08T18:27:12;8.00;99.90
17170;DHT22;8700;48.222;16.342;2024-03-08T18:30:34;8.00;99.90
17170;DHT22;8700;48.222;16.342;2024-03-08T18:33:56;8.10;99.90
17170;DHT22;8700;48.222;16.342;2024-03-08T18:37:19;8.00;99.90
17170;DHT22;8700;48.222;16.342;2024-03-08T18:40:43;7.70;99.90
17170;DHT22;8700;48.222;16.342;2024-03-08T18:44:06;7.40;99.90
17170;DHT22;8700;48.222;16.342;2024-03-08T18:47:27;7.50;99.90
17170;DHT22;8700;48.222;16.342;2024-03-08T18:50:48;7.40;99.90
17170;DHT22;8700;48.222;16.342;2024-03-08T18:54:10;7.50;99.90
17170;DHT22;8700;48.222;16.342;2024-03-08T18:57:33;7.40;99.90
17170;DHT22;8700;48.222;16.342;2024-03-08T19:00:55;7.60;99.90
17170;DHT22;8700;48.222;16.342;2024-03-08T19:04:16;7.50;99.90
17170;DHT22;8700;48.222;16.342;2024-03-08T19:07:37;7.70;99.90
17170;DHT22;8700;48.222;16.342;2024-03-08T19:10:58;7.80;99.90
17170;DHT22;8700;48.222;16.342;2024-03-08T19:14:21;7.70;99.90
17170;DHT22;8700;48.222;16.342;2024-03-08T19:17:42;7.70;99.90
17170;DHT22;8700;48.222;16.342;2024-03-08T19:21:04;7.70;99.90
17170;DHT22;8700;48.222;16.342;2024-03-08T19:24:25;7.80;99.90
17170;DHT22;8700;48.222;16.342;2024-03-08T19:27:47;7.70;99.90
17170;DHT22;8700;48.222;16.342;2024-03-08T19:31:09;7.70;99.90
17170;DHT22;8700;48.222;16.342;2024-03-08T19:34:31;7.60;99.90
17170;DHT22;8700;48.222;16.342;2024-03-08T19:37:53;7.50;99.90
17170;DHT22;8700;48.222;16.342;2024-03-08T19:41:15;7.50;99.90
17170;DHT22;8700;48.222;16.342;2024-03-08T19:44:37;7.40;99.90
17170;DHT22;8700;48.222;16.342;2024-03-08T19:48:02;7.30;99.90
17170;DHT22;8700;48.222;16.342;2024-03-08T19:51:26;7.20;99.90
17170;DHT22;8700;48.222;16.342;2024-03-08T19:54:49;7.40;99.90
17170;DHT22;8700;48.222;16.342;2024-03-08T19:58:11;7.20;99.90
17170;DHT22;8700;48.222;16.342;2024-03-08T20:01:32;7.20;99.90
17170;DHT22;8700;48.222;16.342;2024-03-08T20:04:54;7.40;99.90
17170;DHT22;8700;48.222;16.342;2024-03-08T20:08:15;7.40;99.90
17170;DHT22;8700;48.222;16.342;2024-03-08T20:11:38;7.40;99.90
17170;DHT22;8700;48.222;16.342;2024-03-08T20:14:59;7.20;99.90
17170;DHT22;8700;48.222;16.342;2024-03-08T20:18:22;7.00;99.90
17170;DHT22;8700;48.222;16.342;2024-03-08T20:21:48;7.10;99.90
17170;DHT22;8700;48.222;16.342;2024-03-08T20:25:10;7.30;99.90
17170;DHT22;8700;48.222;16.342;2024-03-08T20:28:37;7.40;99.90
17170;DHT22;8700;48.222;16.342;2024-03-08T20:32:01;7.50;99.90
17170;DHT22;8700;48.222;16.342;2024-03-08T20:35:24;7.50;99.90
17170;DHT22;8700;48.222;16.342;2024-03-08T20:38:47;7.60;99.90
17170;DHT22;8700;48.222;16.342;2024-03-08T20:42:08;7.70;99.90
17170;DHT22;8700;48.222;16.342;2024-03-08T20:45:29;7.70;99.90
17170;DHT22;8700;48.222;16.342;2024-03-08T20:48:51;7.30;99.90
17170;DHT22;8700;48.222;16.342;2024-03-08T20:52:13;7.20;99.90
17170;DHT22;8700;48.222;16.342;2024-03-08T20:55:38;7.20;99.90
17170;DHT22;8700;48.222;16.342;2024-03-08T20:58:59;7.20;99.90
17170;DHT22;8700;48.222;16.342;2024-03-08T21:02:20;7.30;99.90
17170;DHT22;8700;48.222;16.342;2024-03-08T21:05:42;7.40;99.90
17170;DHT22;8700;48.222;16.342;2024-03-08T21:09:04;7.40;99.90
17170;DHT22;8700;48.222;16.342;2024-03-08T21:12:34;7.20;99.90
17170;DHT22;8700;48.222;16.342;2024-03-08T21:15:55;7.20;99.90
17170;DHT22;8700;48.222;16.342;2024-03-08T21:19:17;7.20;99.90
17170;DHT22;8700;48.222;16.342;2024-03-08T21:22:39;7.30;99.90
17170;DHT22;8700;48.222;16.342;2024-03-08T21:26:02;7.40;99.90
17170;DHT22;8700;48.222;16.342;2024-03-08T21:29:29;7.50;99.90
17170;DHT22;8700;48.222;16.342;2024-03-08T21:32:50;7.50;99.90
17170;DHT22;8700;48.222;16.342;2024-03-08T21:36:12;7.70;99.90